Portage Des Sioux, Missouri
Current Conditions -  °F | °C
As of 10:54 PM on Thursday 30 Oct 2014 (Local Time) from KSET Reporting Station
Scattered Clouds Scattered Clouds  
Wind Chill: 45°   Ceiling: Unl
Heat Index: 48°   Visibility: 10mi
Dew Point: 45°   Wind: 6mph
Humidity: 89%   Direction: 350°N
Pressure: 30.05"   Gusts: NA
Location:  38.92°N, 90.34°W
Report Text: KSET 310354Z AUTO 35005KT 10SM SCT120 09/07 A3005 RMK AO2 SLP175 T00890072
Loading
Personal Weather Stations






























Interactive Weather Map
Tropical Storm Tracking
New forecast layout! Learn more

10-Day Weather Forecast

Advertisements
Track Severe Weather on mobile